createdAt,value
2023-07-15T00:01:04.040Z,3.58
2023-07-15T00:03:30.846Z,3.60
2023-07-15T00:05:58.525Z,3.55
2023-07-15T00:08:25.234Z,3.78
2023-07-15T00:10:51.969Z,3.60
2023-07-15T00:13:19.595Z,3.78
2023-07-15T00:15:49.113Z,4.10
2023-07-15T00:18:15.812Z,4.10
2023-07-15T00:20:43.146Z,3.50
2023-07-15T00:23:36.144Z,3.97
2023-07-15T00:26:03.883Z,4.03
2023-07-15T00:28:30.522Z,3.65
2023-07-15T00:30:59.767Z,3.65
2023-07-15T00:33:26.501Z,3.95
2023-07-15T00:35:53.183Z,3.88
2023-07-15T00:38:21.861Z,3.60
2023-07-15T00:40:49.273Z,3.67
2023-07-15T00:44:04.574Z,4.32
2023-07-15T00:46:49.573Z,3.65
2023-07-15T00:49:17.215Z,3.92
2023-07-15T00:51:47.565Z,4.10
2023-07-15T00:54:15.131Z,4.10
2023-07-15T00:56:46.086Z,3.78
2023-07-15T00:59:14.555Z,3.95
2023-07-15T01:01:41.455Z,4.20
2023-07-15T01:04:08.511Z,3.88
2023-07-15T01:06:36.416Z,3.70
2023-07-15T01:09:08.356Z,3.90
2023-07-15T01:11:35.708Z,3.38
2023-07-15T01:14:02.497Z,3.53
2023-07-15T01:16:32.176Z,3.08
2023-07-15T01:18:59.609Z,3.40
2023-07-15T01:21:29.569Z,2.83
2023-07-15T01:23:56.282Z,3.63
2023-07-15T01:26:23.724Z,3.38
2023-07-15T01:28:51.409Z,3.05
2023-07-15T01:31:19.854Z,3.20
2023-07-15T01:33:47.044Z,3.83
2023-07-15T01:36:14.447Z,3.10
2023-07-15T01:38:41.755Z,2.92
2023-07-15T01:41:08.914Z,3.45
2023-07-15T01:43:35.579Z,3.33
2023-07-15T01:46:02.254Z,3.42
2023-07-15T01:48:28.898Z,3.70
2023-07-15T01:50:55.556Z,4.03
2023-07-15T01:53:22.247Z,3.30
2023-07-15T01:55:48.874Z,3.03
2023-07-15T01:58:15.887Z,3.30
2023-07-15T02:00:42.641Z,2.90
2023-07-15T02:03:09.749Z,3.50
2023-07-15T02:05:36.525Z,3.10
2023-07-15T02:08:03.133Z,3.22
2023-07-15T02:10:31.058Z,3.35
2023-07-15T02:12:57.653Z,3.30
2023-07-15T02:15:24.487Z,3.17
2023-07-15T02:17:51.406Z,3.55
2023-07-15T02:20:18.256Z,3.25
2023-07-15T02:22:44.927Z,3.45
2023-07-15T02:25:11.599Z,3.47
2023-07-15T02:27:38.182Z,3.45
2023-07-15T02:30:07.827Z,3.30
2023-07-15T02:32:40.557Z,3.60
2023-07-15T02:35:11.939Z,3.58
2023-07-15T02:37:39.630Z,3.50
2023-07-15T02:40:07.442Z,3.40
2023-07-15T02:42:34.644Z,3.72
2023-07-15T02:45:02.523Z,3.53
2023-07-15T02:47:29.173Z,3.20
2023-07-15T02:49:55.890Z,3.35
2023-07-15T02:52:22.529Z,3.67
2023-07-15T02:54:49.167Z,3.08
2023-07-15T02:57:15.782Z,2.90
2023-07-15T02:59:42.410Z,2.83
2023-07-15T03:02:12.175Z,2.85
2023-07-15T03:04:38.973Z,3.10
2023-07-15T03:07:05.836Z,3.08
2023-07-15T03:09:32.522Z,3.20
2023-07-15T03:12:00.158Z,3.15
2023-07-15T03:14:26.781Z,2.70
2023-07-15T03:16:53.481Z,3.05
2023-07-15T03:19:20.136Z,2.92
2023-07-15T03:21:46.772Z,2.90
2023-07-15T03:24:13.651Z,3.08
2023-07-15T03:26:40.328Z,3.15
2023-07-15T03:29:12.090Z,2.95
2023-07-15T03:31:41.178Z,2.97
2023-07-15T03:34:07.843Z,2.95
2023-07-15T03:36:35.364Z,2.92
2023-07-15T03:39:01.993Z,3.15
2023-07-15T03:41:28.849Z,3.03
2023-07-15T03:43:56.151Z,3.05
2023-07-15T03:46:24.715Z,3.30
2023-07-15T03:48:51.503Z,3.13
2023-07-15T03:51:18.270Z,3.10
2023-07-15T03:53:44.937Z,3.15
2023-07-15T03:56:11.660Z,3.50
2023-07-15T03:58:38.725Z,3.28
2023-07-15T04:01:05.382Z,3.05
2023-07-15T04:03:32.218Z,2.97
2023-07-15T04:05:58.895Z,3.53
2023-07-15T04:08:25.504Z,3.30
2023-07-15T04:10:52.545Z,3.00
2023-07-15T04:13:19.313Z,3.22
2023-07-15T04:15:45.921Z,3.00
2023-07-15T04:18:12.625Z,3.03
2023-07-15T04:20:39.337Z,2.80
2023-07-15T04:23:06.169Z,3.03
2023-07-15T04:25:32.863Z,3.20
2023-07-15T04:27:59.478Z,3.10
2023-07-15T04:30:26.226Z,3.17
2023-07-15T04:32:53.053Z,3.00
2023-07-15T04:35:19.717Z,3.15
2023-07-15T04:37:46.400Z,2.67
2023-07-15T04:40:13.049Z,3.40
2023-07-15T04:42:39.727Z,3.10
2023-07-15T04:45:07.785Z,3.00
2023-07-15T04:47:35.387Z,2.88
2023-07-15T04:50:03.006Z,2.95
2023-07-15T04:52:29.834Z,2.92
2023-07-15T04:54:56.476Z,2.90
2023-07-15T04:57:23.563Z,2.97
2023-07-15T04:59:53.574Z,2.80
2023-07-15T05:02:20.263Z,2.65
2023-07-15T05:04:46.860Z,3.00
2023-07-15T05:07:13.541Z,2.80
2023-07-15T05:09:41.040Z,3.28
2023-07-15T05:12:08.024Z,2.72
2023-07-15T05:14:35.936Z,2.70
2023-07-15T05:17:03.698Z,3.10
2023-07-15T05:19:30.953Z,3.28
2023-07-15T05:21:57.567Z,3.05
2023-07-15T05:24:30.971Z,3.17
2023-07-15T05:26:57.767Z,3.03
2023-07-15T05:29:24.492Z,3.30
2023-07-15T05:31:51.575Z,3.53
2023-07-15T05:34:18.243Z,3.10
2023-07-15T05:36:44.852Z,3.13
2023-07-15T05:39:12.615Z,3.10
2023-07-15T05:41:39.305Z,2.60
2023-07-15T05:44:05.921Z,3.40
2023-07-15T05:46:32.552Z,3.08
2023-07-15T05:48:59.994Z,3.10
2023-07-15T05:51:26.694Z,3.20
2023-07-15T05:53:53.341Z,2.85
2023-07-15T05:56:20.009Z,2.40
2023-07-15T05:58:46.663Z,2.88
2023-07-15T06:01:13.775Z,3.33
2023-07-15T06:03:41.195Z,2.70
2023-07-15T06:06:08.453Z,3.15
2023-07-15T06:08:35.204Z,3.28
2023-07-15T06:11:02.040Z,3.20
2023-07-15T06:13:30.622Z,3.05
2023-07-15T06:15:57.576Z,3.15
2023-07-15T06:18:24.440Z,3.42
2023-07-15T06:20:51.122Z,3.15
2023-07-15T06:23:17.742Z,3.05
2023-07-15T06:25:44.354Z,2.97
2023-07-15T06:28:11.031Z,2.92
2023-07-15T06:30:37.680Z,2.78
2023-07-15T06:33:04.371Z,3.47
2023-07-15T06:35:31.052Z,3.08
2023-07-15T06:37:57.753Z,2.90
2023-07-15T06:40:24.454Z,2.78
2023-07-15T06:42:52.180Z,3.03
2023-07-15T06:45:20.731Z,2.92
2023-07-15T06:47:47.457Z,2.85
2023-07-15T06:50:16.935Z,2.95
2023-07-15T06:52:43.732Z,3.10
2023-07-15T06:55:10.402Z,3.20
2023-07-15T06:57:37.043Z,3.22
2023-07-15T07:00:05.335Z,2.92
2023-07-15T07:02:32.064Z,3.15
2023-07-15T07:04:58.744Z,3.03
2023-07-15T07:07:25.594Z,2.75
2023-07-15T07:09:52.515Z,2.90
2023-07-15T07:13:03.277Z,2.63
2023-07-15T07:15:31.047Z,2.70
2023-07-15T07:17:58.040Z,2.80
2023-07-15T07:20:24.782Z,2.70
2023-07-15T07:22:51.417Z,2.33
2023-07-15T07:25:18.107Z,2.88
2023-07-15T07:27:44.773Z,2.58
2023-07-15T07:30:11.877Z,2.10
2023-07-15T07:32:38.550Z,2.22
2023-07-15T07:35:05.626Z,2.30
2023-07-15T07:37:32.316Z,2.20
2023-07-15T07:39:58.938Z,1.90
2023-07-15T07:42:25.753Z,2.03
2023-07-15T07:44:55.220Z,2.05
2023-07-15T07:47:21.952Z,2.05
2023-07-15T07:49:48.697Z,2.08
2023-07-15T07:52:15.397Z,2.53
2023-07-15T07:54:42.022Z,2.25
2023-07-15T07:57:09.465Z,2.03
2023-07-15T07:59:36.491Z,2.30
2023-07-15T08:02:03.290Z,2.35
2023-07-15T08:04:32.797Z,2.30
2023-07-15T08:07:00.615Z,2.13
2023-07-15T08:09:27.636Z,2.17
2023-07-15T08:11:57.227Z,2.38
2023-07-15T08:14:27.325Z,2.40
2023-07-15T08:16:54.068Z,2.20
2023-07-15T08:19:21.353Z,2.80
2023-07-15T08:21:48.697Z,2.38
2023-07-15T08:24:15.443Z,2.40
2023-07-15T08:26:43.249Z,1.92
2023-07-15T08:29:10.027Z,1.95
2023-07-15T08:31:36.699Z,2.33
2023-07-15T08:34:04.463Z,2.30
2023-07-15T08:36:31.261Z,1.80
2023-07-15T08:38:57.880Z,2.30
2023-07-15T08:41:25.506Z,1.92
2023-07-15T08:43:52.749Z,2.17
2023-07-15T08:46:30.714Z,1.98
2023-07-15T08:48:58.514Z,1.80
2023-07-15T08:51:31.954Z,2.17
2023-07-15T08:54:01.302Z,2.00
2023-07-15T08:56:29.211Z,1.95
2023-07-15T08:58:57.609Z,2.00
2023-07-15T09:01:24.707Z,1.70
2023-07-15T09:03:51.510Z,1.92
2023-07-15T09:06:18.323Z,1.90
2023-07-15T09:08:51.037Z,2.03
2023-07-15T09:11:17.764Z,2.10
2023-07-15T09:13:45.641Z,2.40
2023-07-15T09:16:12.330Z,1.80
2023-07-15T09:18:42.354Z,2.00
2023-07-15T09:21:16.671Z,2.22
2023-07-15T09:23:46.104Z,1.83
2023-07-15T09:26:13.655Z,1.88
2023-07-15T09:28:42.286Z,1.70
2023-07-15T09:31:09.026Z,2.03
2023-07-15T09:33:40.772Z,1.70
2023-07-15T09:36:08.126Z,1.70
2023-07-15T09:38:36.824Z,2.00
2023-07-15T09:41:05.469Z,1.65
2023-07-15T09:43:44.705Z,1.85
2023-07-15T09:46:11.909Z,2.28
2023-07-15T09:48:38.540Z,2.10
2023-07-15T09:51:05.465Z,2.00
2023-07-15T09:53:32.564Z,1.92
2023-07-15T09:56:00.538Z,1.95
2023-07-15T09:58:27.524Z,2.15
2023-07-15T10:01:00.479Z,2.10
2023-07-15T10:03:40.400Z,1.95
2023-07-15T10:06:07.216Z,1.67
2023-07-15T10:08:34.952Z,1.75
2023-07-15T10:11:02.144Z,1.50
2023-07-15T10:13:29.133Z,1.50
2023-07-15T10:15:55.937Z,1.73
2023-07-15T10:18:23.304Z,1.50
2023-07-15T10:20:57.345Z,1.58
2023-07-15T10:23:28.195Z,1.58
2023-07-15T10:26:09.328Z,1.38
2023-07-15T10:28:39.976Z,1.50
2023-07-15T10:31:17.162Z,1.75
2023-07-15T10:33:56.948Z,1.30
2023-07-15T10:36:48.419Z,1.73
2023-07-15T10:39:17.488Z,1.50
2023-07-15T10:41:49.201Z,1.80
2023-07-15T10:44:23.908Z,1.50
2023-07-15T10:47:04.912Z,1.92
2023-07-15T10:49:32.372Z,1.48
2023-07-15T10:51:59.328Z,1.55
2023-07-15T10:54:33.456Z,1.75
2023-07-15T10:57:08.100Z,1.38
2023-07-15T10:59:36.376Z,1.70
2023-07-15T11:02:03.144Z,1.65
2023-07-15T11:04:29.938Z,1.70
2023-07-15T11:07:13.041Z,1.55
2023-07-15T11:09:41.401Z,1.48
2023-07-15T11:12:10.055Z,1.33
2023-07-15T11:14:39.889Z,1.55
2023-07-15T11:17:07.966Z,1.42
2023-07-15T11:19:34.657Z,1.42
2023-07-15T11:22:06.247Z,1.90
2023-07-15T11:24:34.178Z,1.90
2023-07-15T11:27:01.890Z,2.05
2023-07-15T11:29:29.364Z,1.80
2023-07-15T11:31:57.915Z,1.77
2023-07-15T11:34:26.196Z,1.88
2023-07-15T11:36:54.947Z,2.00
2023-07-15T11:39:22.163Z,2.03
2023-07-15T11:41:51.071Z,1.60
2023-07-15T11:44:21.559Z,1.73
2023-07-15T11:46:48.296Z,1.85
2023-07-15T11:49:21.152Z,2.00
2023-07-15T11:51:47.901Z,1.80
2023-07-15T11:54:16.482Z,1.77
2023-07-15T11:56:45.085Z,1.80
2023-07-15T11:59:13.696Z,1.83
2023-07-15T12:01:41.724Z,1.77
2023-07-15T12:04:13.079Z,1.77
2023-07-15T12:06:47.461Z,2.17
2023-07-15T12:09:16.070Z,1.70
2023-07-15T12:11:43.303Z,1.77
2023-07-15T12:14:10.460Z,2.08
2023-07-15T12:16:38.964Z,1.88
2023-07-15T12:19:09.842Z,1.67
2023-07-15T12:24:05.974Z,2.05
2023-07-15T12:26:32.652Z,1.92
2023-07-15T12:28:59.342Z,1.60
2023-07-15T12:31:26.123Z,1.90
2023-07-15T12:33:52.802Z,1.85
2023-07-15T12:36:19.784Z,1.90
2023-07-15T12:38:46.936Z,1.60
2023-07-15T12:41:14.414Z,1.75
2023-07-15T12:43:41.808Z,1.70
2023-07-15T12:46:08.660Z,1.73
2023-07-15T12:48:35.578Z,1.73
2023-07-15T12:51:02.201Z,1.83
2023-07-15T12:53:28.887Z,1.67
2023-07-15T12:55:55.639Z,1.60
2023-07-15T12:58:22.951Z,1.40
2023-07-15T13:00:50.063Z,1.52
2023-07-15T13:03:16.885Z,1.80
2023-07-15T13:05:43.762Z,1.70
2023-07-15T13:08:12.096Z,1.70
2023-07-15T13:10:38.823Z,1.50
2023-07-15T13:13:05.509Z,1.73
2023-07-15T13:15:32.131Z,1.63
2023-07-15T13:17:58.898Z,1.45
2023-07-15T13:20:25.606Z,1.52
2023-07-15T13:22:52.315Z,1.85
2023-07-15T13:25:19.111Z,1.95
2023-07-15T13:27:45.723Z,2.15
2023-07-15T13:30:12.481Z,1.88
2023-07-15T13:32:39.238Z,2.05
2023-07-15T13:35:06.656Z,1.70
2023-07-15T13:37:33.510Z,1.77
2023-07-15T13:40:00.182Z,1.70
2023-07-15T13:42:26.962Z,1.60
2023-07-15T13:44:54.105Z,1.67
2023-07-15T13:47:20.828Z,1.80
2023-07-15T13:49:47.630Z,1.50
2023-07-15T13:52:14.415Z,1.92
2023-07-15T13:54:41.117Z,1.85
2023-07-15T13:57:07.797Z,1.55
2023-07-15T13:59:34.547Z,1.55
2023-07-15T14:02:01.962Z,1.50
2023-07-15T14:04:28.639Z,1.55
2023-07-15T14:06:55.301Z,1.77
2023-07-15T14:09:22.015Z,2.00
2023-07-15T14:11:48.742Z,1.98
2023-07-15T14:14:17.217Z,1.50
2023-07-15T14:16:43.869Z,1.98
2023-07-15T14:19:10.552Z,1.90
2023-07-15T14:21:37.201Z,1.67
2023-07-15T14:24:05.167Z,1.90
2023-07-15T14:26:32.997Z,2.00
2023-07-15T14:28:59.755Z,2.25
2023-07-15T14:31:26.677Z,2.28
2023-07-15T14:33:55.508Z,1.83
2023-07-15T14:36:22.982Z,1.77
2023-07-15T14:38:49.995Z,2.20
2023-07-15T14:41:18.182Z,2.10
2023-07-15T14:43:45.360Z,2.28
2023-07-15T14:46:12.301Z,2.22
2023-07-15T14:48:40.329Z,2.08
2023-07-15T14:51:07.064Z,1.75
2023-07-15T14:53:33.948Z,1.98
2023-07-15T14:56:02.335Z,2.15
2023-07-15T14:58:29.122Z,1.95
2023-07-15T15:00:55.854Z,2.13
2023-07-15T15:03:22.669Z,2.10
2023-07-15T15:05:49.414Z,2.40
2023-07-15T15:08:16.166Z,1.98
2023-07-15T15:10:43.246Z,1.90
2023-07-15T15:13:10.069Z,2.20
2023-07-15T15:15:36.942Z,2.20
2023-07-15T15:18:04.436Z,2.10
2023-07-15T15:20:31.400Z,2.00
2023-07-15T15:22:58.220Z,3.42
2023-07-15T15:25:28.043Z,4.55
2023-07-15T15:27:54.653Z,2.53
2023-07-15T15:30:21.269Z,1.88
2023-07-15T15:32:47.953Z,2.63
2023-07-15T15:35:14.710Z,4.15
2023-07-15T15:37:41.400Z,2.50
2023-07-15T15:40:08.869Z,2.30
2023-07-15T15:42:35.580Z,3.47
2023-07-15T15:45:04.325Z,2.78
2023-07-15T15:47:31.280Z,2.22
2023-07-15T15:49:57.944Z,2.30
2023-07-15T15:52:24.674Z,2.25
2023-07-15T15:54:51.381Z,2.30
2023-07-15T15:57:18.000Z,3.05
2023-07-15T15:59:44.647Z,6.63
2023-07-15T16:02:11.463Z,2.25
2023-07-15T16:04:38.127Z,1.90
2023-07-15T16:07:05.010Z,2.00
2023-07-15T16:09:31.644Z,2.00
2023-07-15T16:11:58.353Z,2.00
2023-07-15T16:14:24.964Z,1.92
2023-07-15T16:16:51.577Z,2.08
2023-07-15T16:19:18.281Z,1.77
2023-07-15T16:21:44.894Z,1.98
2023-07-15T16:24:11.510Z,1.70
2023-07-15T16:26:38.131Z,2.20
2023-07-15T16:29:04.720Z,2.00
2023-07-15T16:31:34.586Z,1.90
2023-07-15T16:34:03.117Z,1.90
2023-07-15T16:36:29.758Z,2.13
2023-07-15T16:38:56.355Z,1.83
2023-07-15T16:41:22.982Z,1.95
2023-07-15T16:43:49.833Z,1.85
2023-07-15T16:46:16.655Z,1.98
2023-07-15T16:48:43.325Z,2.00
2023-07-15T16:51:09.944Z,4.43
2023-07-15T16:53:36.571Z,9.68
2023-07-15T16:56:03.243Z,2.88
2023-07-15T16:58:29.850Z,2.78
2023-07-15T17:00:57.532Z,3.97
2023-07-15T17:03:24.262Z,3.17
2023-07-15T17:05:51.018Z,7.32
2023-07-15T17:08:17.605Z,3.08
2023-07-15T17:10:44.313Z,2.90
2023-07-15T17:13:13.569Z,2.70
2023-07-15T17:15:40.412Z,2.40
2023-07-15T17:18:07.158Z,3.00
2023-07-15T17:20:33.850Z,2.83
2023-07-15T17:23:00.562Z,2.50
2023-07-15T17:25:27.244Z,2.90
2023-07-15T17:27:53.947Z,2.88
2023-07-15T17:30:20.591Z,2.40
2023-07-15T17:32:47.338Z,2.38
2023-07-15T17:35:14.127Z,2.83
2023-07-15T17:37:40.708Z,2.40
2023-07-15T17:40:08.060Z,2.67
2023-07-15T17:42:34.723Z,3.17
2023-07-15T17:45:01.469Z,3.40
2023-07-15T17:47:28.237Z,2.85
2023-07-15T17:49:55.041Z,3.10
2023-07-15T17:52:22.375Z,2.65
2023-07-15T17:54:48.973Z,2.58
2023-07-15T17:57:15.564Z,2.80
2023-07-15T17:59:42.190Z,2.47
2023-07-15T18:02:08.834Z,2.65
2023-07-15T18:04:35.472Z,2.75
2023-07-15T18:07:02.067Z,2.60
2023-07-15T18:09:28.683Z,3.33
2023-07-15T18:11:55.310Z,2.35
2023-07-15T18:14:21.895Z,2.47
2023-07-15T18:16:48.505Z,3.10
2023-07-15T18:19:15.169Z,2.38
2023-07-15T18:21:42.054Z,2.22
2023-07-15T18:24:08.707Z,2.00
2023-07-15T18:26:35.405Z,1.67
2023-07-15T18:29:02.014Z,1.73
2023-07-15T18:31:28.764Z,2.10
2023-07-15T18:34:00.270Z,2.08
2023-07-15T18:36:35.751Z,1.67
2023-07-15T18:39:02.360Z,2.05
2023-07-15T18:41:29.045Z,1.63
2023-07-15T18:43:56.072Z,1.77
2023-07-15T18:46:22.901Z,2.33
2023-07-15T18:48:49.491Z,2.63
2023-07-15T18:51:17.367Z,2.10
2023-07-15T18:53:44.300Z,1.88
2023-07-15T18:56:10.899Z,1.98
2023-07-15T18:58:37.583Z,1.83
2023-07-15T19:01:04.232Z,1.67
2023-07-15T19:03:33.267Z,1.60
2023-07-15T19:06:00.120Z,1.92
2023-07-15T19:08:26.748Z,1.70
2023-07-15T19:10:53.451Z,1.73
2023-07-15T19:13:20.140Z,1.80
2023-07-15T19:15:46.741Z,1.70
2023-07-15T19:18:13.425Z,1.92
2023-07-15T19:20:40.114Z,1.83
2023-07-15T19:23:06.955Z,2.03
2023-07-15T19:25:33.692Z,1.92
2023-07-15T19:28:00.318Z,2.05
2023-07-15T19:30:27.133Z,2.30
2023-07-15T19:32:53.793Z,2.70
2023-07-15T19:35:20.497Z,2.20
2023-07-15T19:37:47.192Z,2.05
2023-07-15T19:40:13.831Z,1.77
2023-07-15T19:42:42.097Z,2.10
2023-07-15T19:45:09.009Z,2.20
2023-07-15T19:47:35.685Z,2.00
2023-07-15T19:50:02.346Z,2.00
2023-07-15T19:52:28.961Z,1.60
2023-07-15T19:54:55.757Z,2.08
2023-07-15T19:57:22.580Z,2.13
2023-07-15T19:59:49.219Z,2.40
2023-07-15T20:02:15.852Z,2.00
2023-07-15T20:04:42.501Z,2.17
2023-07-15T20:07:09.146Z,2.05
2023-07-15T20:09:35.981Z,2.55
2023-07-15T20:12:02.562Z,2.53
2023-07-15T20:14:29.221Z,1.90
2023-07-15T20:16:56.931Z,2.20
2023-07-15T20:19:23.575Z,2.45
2023-07-15T20:21:50.263Z,2.53
2023-07-15T20:24:16.904Z,2.25
2023-07-15T20:26:43.509Z,2.38
2023-07-15T20:29:10.201Z,2.33
2023-07-15T20:31:37.145Z,2.30
2023-07-15T20:34:04.912Z,2.10
2023-07-15T20:36:31.836Z,2.47
2023-07-15T20:38:58.608Z,2.40
2023-07-15T20:41:25.396Z,1.95
2023-07-15T20:43:52.221Z,2.38
2023-07-15T20:46:19.151Z,2.35
2023-07-15T20:48:46.042Z,2.53
2023-07-15T20:51:12.650Z,2.25
2023-07-15T20:53:41.638Z,2.47
2023-07-15T20:56:08.543Z,2.20
2023-07-15T20:58:35.331Z,2.55
2023-07-15T21:01:02.239Z,2.42
2023-07-15T21:03:28.957Z,2.80
2023-07-15T21:06:00.345Z,2.88
2023-07-15T21:08:27.667Z,2.83
2023-07-15T21:10:58.805Z,2.97
2023-07-15T21:13:26.076Z,2.97
2023-07-15T21:15:52.931Z,2.47
2023-07-15T21:18:21.524Z,3.00
2023-07-15T21:20:48.996Z,2.85
2023-07-15T21:23:16.560Z,2.80
2023-07-15T21:25:43.395Z,3.00
2023-07-15T21:28:10.162Z,2.72
2023-07-15T21:30:36.771Z,3.38
2023-07-15T21:33:03.781Z,2.80
2023-07-15T21:35:31.744Z,3.80
2023-07-15T21:37:58.731Z,4.45
2023-07-15T21:40:27.503Z,4.20
2023-07-15T21:42:54.711Z,4.30
2023-07-15T21:45:21.478Z,3.70
2023-07-15T21:47:48.116Z,3.17
2023-07-15T21:50:14.872Z,3.40
2023-07-15T21:52:41.469Z,3.53
2023-07-15T21:55:08.466Z,3.17
2023-07-15T21:57:35.138Z,2.65
2023-07-15T22:00:01.738Z,3.25
2023-07-15T22:02:28.450Z,3.10
2023-07-15T22:04:55.262Z,3.22
2023-07-15T22:07:21.919Z,2.95
2023-07-15T22:09:48.584Z,3.33
2023-07-15T22:12:15.259Z,2.97
2023-07-15T22:14:41.865Z,3.17
2023-07-15T22:17:08.772Z,3.30
2023-07-15T22:19:35.374Z,3.10
2023-07-15T22:22:02.137Z,3.00
2023-07-15T22:24:28.761Z,3.55
2023-07-15T22:26:55.459Z,3.60
2023-07-15T22:29:22.080Z,3.25
2023-07-15T22:31:48.814Z,3.45
2023-07-15T22:34:15.592Z,3.25
2023-07-15T22:36:42.247Z,3.63
2023-07-15T22:39:09.677Z,3.65
2023-07-15T22:41:36.443Z,3.25
2023-07-15T22:44:03.110Z,4.25
2023-07-15T22:46:29.757Z,3.83
2023-07-15T22:48:56.355Z,3.97
2023-07-15T22:51:22.999Z,3.25
2023-07-15T22:53:50.283Z,3.97
2023-07-15T22:56:17.519Z,3.65
2023-07-15T22:58:44.519Z,3.63
2023-07-15T23:01:13.156Z,3.50
2023-07-15T23:03:40.544Z,3.13
2023-07-15T23:06:07.651Z,3.22
2023-07-15T23:08:34.341Z,3.08
2023-07-15T23:11:01.047Z,3.33
2023-07-15T23:13:27.692Z,3.28
2023-07-15T23:16:03.210Z,3.35
2023-07-15T23:18:45.148Z,3.58
2023-07-15T23:21:12.307Z,3.10
2023-07-15T23:23:39.081Z,3.40
2023-07-15T23:26:05.779Z,3.30
2023-07-15T23:28:32.378Z,3.17
2023-07-15T23:30:59.727Z,3.03
2023-07-15T23:33:26.469Z,2.83
2023-07-15T23:35:53.543Z,3.10
2023-07-15T23:38:20.190Z,3.20
2023-07-15T23:40:46.853Z,3.00
2023-07-15T23:43:13.430Z,3.40
2023-07-15T23:45:40.048Z,3.10
2023-07-15T23:48:06.785Z,3.70
2023-07-15T23:50:33.622Z,3.63
2023-07-15T23:53:00.305Z,3.33
2023-07-15T23:55:26.966Z,3.33
2023-07-15T23:57:53.650Z,3.88
